createdAt,value
2018-10-03T00:00:05.444Z,90.50
2018-10-03T00:02:35.041Z,90.60
2018-10-03T00:05:04.667Z,90.40
2018-10-03T00:07:34.328Z,90.20
2018-10-03T00:10:04.009Z,90.10
2018-10-03T00:12:33.592Z,90.10
2018-10-03T00:15:03.199Z,90.40
2018-10-03T00:17:32.791Z,90.60
2018-10-03T00:20:02.657Z,91.00
2018-10-03T00:22:32.295Z,91.00
2018-10-03T00:25:01.893Z,91.20
2018-10-03T00:27:31.508Z,91.30
2018-10-03T00:30:01.112Z,91.10
2018-10-03T00:32:30.693Z,91.10
2018-10-03T00:35:00.291Z,91.10
2018-10-03T00:37:29.894Z,90.90
2018-10-03T00:39:59.589Z,91.10
2018-10-03T00:42:29.201Z,90.90
2018-10-03T00:44:58.844Z,91.10
2018-10-03T00:47:28.476Z,91.20
2018-10-03T00:49:58.080Z,91.30
2018-10-03T00:52:27.664Z,91.40
2018-10-03T00:54:57.280Z,91.70
2018-10-03T00:57:26.879Z,91.60
2018-10-03T00:59:56.458Z,91.50
2018-10-03T01:02:26.112Z,91.60
2018-10-03T01:04:55.712Z,91.70
2018-10-03T01:07:25.312Z,92.00
2018-10-03T01:09:54.951Z,91.90
2018-10-03T01:12:24.596Z,92.40
2018-10-03T01:14:54.199Z,92.90
2018-10-03T01:17:23.827Z,93.00
2018-10-03T01:19:53.455Z,93.50
2018-10-03T01:22:23.051Z,93.90
2018-10-03T01:24:52.671Z,93.80
2018-10-03T01:27:22.286Z,93.90
2018-10-03T01:29:51.927Z,94.20
2018-10-03T01:32:21.544Z,94.30
2018-10-03T01:34:51.154Z,94.40
2018-10-03T01:37:20.768Z,94.60
2018-10-03T01:39:50.361Z,94.80
2018-10-03T01:42:19.963Z,94.90
2018-10-03T01:44:49.630Z,94.90
2018-10-03T01:47:19.222Z,94.90
2018-10-03T01:49:48.836Z,94.90
2018-10-03T01:52:18.461Z,94.80
2018-10-03T01:54:48.056Z,94.80
2018-10-03T01:57:17.755Z,94.80
2018-10-03T01:59:47.356Z,94.80
2018-10-03T02:02:16.955Z,94.90
2018-10-03T02:04:46.591Z,94.90
2018-10-03T02:07:16.187Z,94.80
2018-10-03T02:09:45.787Z,94.80
2018-10-03T02:12:15.399Z,95.30
2018-10-03T02:14:45.079Z,95.00
2018-10-03T02:17:14.665Z,95.10
2018-10-03T02:19:44.259Z,95.00
2018-10-03T02:22:13.868Z,94.80
2018-10-03T02:24:43.452Z,94.90
2018-10-03T02:27:13.071Z,94.90
2018-10-03T02:29:42.679Z,94.90
2018-10-03T02:32:12.280Z,94.90
2018-10-03T02:34:41.912Z,95.10
2018-10-03T02:37:11.679Z,95.10
2018-10-03T02:39:41.316Z,95.20
2018-10-03T02:42:10.927Z,95.60
2018-10-03T02:44:40.532Z,95.60
2018-10-03T02:47:10.131Z,95.60
2018-10-03T02:49:39.988Z,95.60
2018-10-03T02:52:09.630Z,95.60
2018-10-03T02:54:39.244Z,95.60
2018-10-03T02:57:08.848Z,95.50
2018-10-03T02:59:38.458Z,95.50
2018-10-03T03:02:08.389Z,95.70
2018-10-03T03:04:38.008Z,95.50
2018-10-03T03:07:07.620Z,95.40
2018-10-03T03:09:37.260Z,95.40
2018-10-03T03:12:07.041Z,95.50
2018-10-03T03:14:36.783Z,95.60
2018-10-03T03:17:06.611Z,95.70
2018-10-03T03:19:36.272Z,95.80
2018-10-03T03:22:05.938Z,96.10
2018-10-03T03:24:35.559Z,95.80
2018-10-03T03:27:05.178Z,95.90
2018-10-03T03:29:34.841Z,95.90
2018-10-03T03:32:04.448Z,95.90
2018-10-03T03:34:34.092Z,96.00
2018-10-03T03:37:03.691Z,96.20
2018-10-03T03:39:33.297Z,96.20
2018-10-03T03:42:02.891Z,96.20
2018-10-03T03:44:32.506Z,96.40
2018-10-03T03:47:02.104Z,96.40
2018-10-03T03:49:31.727Z,96.70
2018-10-03T03:52:01.323Z,96.60
2018-10-03T03:54:30.944Z,96.60
2018-10-03T03:57:00.554Z,96.60
2018-10-03T03:59:30.235Z,96.70
2018-10-03T04:01:59.811Z,96.60
2018-10-03T04:04:29.483Z,96.50
2018-10-03T04:06:59.089Z,96.50
2018-10-03T04:09:28.696Z,96.50
2018-10-03T04:11:58.339Z,96.70
2018-10-03T04:14:27.926Z,96.70
2018-10-03T04:16:57.534Z,97.00
2018-10-03T04:19:27.862Z,97.00
2018-10-03T04:21:57.756Z,97.00
2018-10-03T04:24:27.426Z,97.10
2018-10-03T04:26:57.051Z,97.00
2018-10-03T04:29:26.657Z,97.00
2018-10-03T04:31:56.263Z,97.00
2018-10-03T04:34:25.871Z,97.00
2018-10-03T04:36:55.546Z,97.00
2018-10-03T04:39:25.157Z,96.80
2018-10-03T04:41:54.788Z,96.70
2018-10-03T04:44:24.408Z,96.60
2018-10-03T04:46:54.007Z,96.60
2018-10-03T04:49:23.620Z,96.50
2018-10-03T04:51:53.253Z,96.50
2018-10-03T04:54:22.864Z,96.60
2018-10-03T04:56:52.494Z,96.60
2018-10-03T04:59:22.116Z,96.70
2018-10-03T05:01:51.712Z,96.70
2018-10-03T05:04:21.331Z,96.90
2018-10-03T05:06:50.939Z,96.90
2018-10-03T05:09:20.528Z,96.90
2018-10-03T05:11:50.130Z,96.90
2018-10-03T05:14:19.737Z,97.00
2018-10-03T05:16:49.334Z,97.00
2018-10-03T05:19:18.975Z,97.00
2018-10-03T05:21:48.568Z,97.10
2018-10-03T05:24:18.159Z,97.20
2018-10-03T05:26:47.774Z,97.20
2018-10-03T05:29:17.354Z,97.20
2018-10-03T05:31:46.996Z,97.30
2018-10-03T05:34:16.660Z,97.30
2018-10-03T05:36:46.284Z,97.20
2018-10-03T05:39:15.881Z,97.20
2018-10-03T05:41:45.505Z,97.20
2018-10-03T05:44:15.096Z,97.30
2018-10-03T05:46:44.693Z,97.30
2018-10-03T05:49:14.332Z,97.50
2018-10-03T05:51:43.932Z,97.80
2018-10-03T05:54:13.591Z,97.80
2018-10-03T05:56:43.188Z,98.00
2018-10-03T05:59:12.776Z,98.10
2018-10-03T06:01:42.380Z,98.10
2018-10-03T06:04:11.972Z,98.10
2018-10-03T06:06:41.572Z,98.10
2018-10-03T06:09:12.535Z,98.40
2018-10-03T06:11:43.047Z,98.00
2018-10-03T06:14:12.988Z,98.10
2018-10-03T06:16:42.571Z,98.30
2018-10-03T06:19:12.185Z,98.20
2018-10-03T06:21:41.854Z,98.00
2018-10-03T06:24:11.520Z,98.00
2018-10-03T06:26:41.102Z,97.90
2018-10-03T06:29:10.751Z,97.90
2018-10-03T06:31:40.343Z,97.60
2018-10-03T06:34:09.936Z,97.50
2018-10-03T06:36:39.546Z,97.50
2018-10-03T06:39:10.183Z,97.60
2018-10-03T06:41:41.209Z,97.50
2018-10-03T06:44:11.439Z,97.50
2018-10-03T06:46:41.036Z,97.40
2018-10-03T06:49:10.644Z,97.40
2018-10-03T06:51:40.250Z,97.40
2018-10-03T06:54:09.849Z,97.50
2018-10-03T06:56:39.433Z,97.10
2018-10-03T06:59:09.073Z,96.90
2018-10-03T07:01:38.658Z,96.70
2018-10-03T07:04:08.318Z,96.70
2018-10-03T07:06:37.983Z,96.60
2018-10-03T07:09:08.487Z,96.40
2018-10-03T07:11:38.207Z,96.40
2018-10-03T07:14:07.880Z,96.50
2018-10-03T07:16:37.456Z,96.00
2018-10-03T07:19:07.232Z,95.90
2018-10-03T07:21:36.824Z,95.50
2018-10-03T07:24:06.435Z,96.20
2018-10-03T07:26:36.016Z,95.90
2018-10-03T07:29:05.651Z,95.60
2018-10-03T07:31:35.253Z,95.60
2018-10-03T07:34:04.840Z,95.10
2018-10-03T07:36:34.483Z,94.70
2018-10-03T07:39:05.080Z,94.90
2018-10-03T07:41:34.678Z,94.90
2018-10-03T07:44:04.397Z,94.80
2018-10-03T07:46:33.996Z,94.00
2018-10-03T07:49:03.602Z,93.80
2018-10-03T07:51:33.212Z,93.20
2018-10-03T07:54:02.816Z,92.80
2018-10-03T07:56:32.433Z,92.60
2018-10-03T07:59:02.105Z,92.70
2018-10-03T08:01:31.752Z,93.10
2018-10-03T08:04:01.331Z,92.40
2018-10-03T08:06:30.923Z,92.40
2018-10-03T08:09:00.527Z,92.20
2018-10-03T08:11:30.135Z,92.10
2018-10-03T08:13:59.702Z,91.30
2018-10-03T08:16:29.299Z,91.80
2018-10-03T08:18:58.903Z,91.50
2018-10-03T08:21:28.502Z,92.30
2018-10-03T08:23:58.138Z,91.40
2018-10-03T08:26:27.728Z,91.70
2018-10-03T08:28:57.316Z,91.10
2018-10-03T08:31:26.932Z,90.20
2018-10-03T08:33:56.556Z,89.70
2018-10-03T08:36:26.167Z,87.60
2018-10-03T08:38:55.776Z,89.00
2018-10-03T08:41:25.385Z,89.30
2018-10-03T08:43:54.980Z,88.90
2018-10-03T08:46:24.563Z,87.70
2018-10-03T08:48:54.189Z,88.50
2018-10-03T08:51:23.809Z,87.90
2018-10-03T08:53:53.416Z,87.60
2018-10-03T08:56:23.006Z,88.10
2018-10-03T08:58:52.604Z,85.30
2018-10-03T09:01:22.276Z,85.10
2018-10-03T09:03:51.916Z,82.90
2018-10-03T09:06:21.528Z,86.20
2018-10-03T09:08:51.148Z,81.50
2018-10-03T09:11:20.748Z,81.50
2018-10-03T09:13:50.350Z,83.00
2018-10-03T09:16:19.938Z,81.50
2018-10-03T09:18:49.513Z,81.60
2018-10-03T09:21:19.128Z,82.10
2018-10-03T09:23:48.744Z,81.90
2018-10-03T09:26:18.324Z,82.70
2018-10-03T09:28:47.947Z,81.80
2018-10-03T09:31:17.640Z,82.20
2018-10-03T09:33:47.255Z,82.00
2018-10-03T09:36:17.186Z,81.20
2018-10-03T09:38:46.897Z,80.30
2018-10-03T09:41:16.596Z,80.30
2018-10-03T09:43:46.338Z,81.10
2018-10-03T09:46:15.930Z,80.80
2018-10-03T09:48:45.552Z,81.10
2018-10-03T09:51:15.171Z,81.40
2018-10-03T09:53:44.747Z,81.80
2018-10-03T09:56:14.343Z,81.70
2018-10-03T09:58:43.948Z,81.00
2018-10-03T10:01:14.832Z,81.60
2018-10-03T10:03:44.447Z,80.90
2018-10-03T10:06:14.035Z,81.00
2018-10-03T10:08:43.647Z,80.50
2018-10-03T10:11:13.324Z,80.50
2018-10-03T10:13:43.107Z,80.30
2018-10-03T10:16:12.688Z,80.40
2018-10-03T10:18:42.282Z,80.40
2018-10-03T10:21:12.091Z,79.40
2018-10-03T10:23:41.691Z,79.10
2018-10-03T10:26:11.367Z,78.70
2018-10-03T10:28:41.047Z,77.80
2018-10-03T10:31:10.724Z,78.20
2018-10-03T10:33:40.332Z,77.60
2018-10-03T10:36:09.907Z,76.20
2018-10-03T10:38:39.510Z,75.40
2018-10-03T10:41:09.241Z,75.50
2018-10-03T10:43:38.760Z,75.60
2018-10-03T10:46:08.666Z,75.80
2018-10-03T10:48:38.279Z,77.30
2018-10-03T10:51:07.888Z,75.50
2018-10-03T10:53:37.464Z,76.80
2018-10-03T10:56:07.068Z,76.50
2018-10-03T10:58:36.664Z,77.60
2018-10-03T11:01:06.276Z,79.30
2018-10-03T11:03:35.860Z,80.00
2018-10-03T11:06:05.809Z,80.70
2018-10-03T11:08:35.384Z,80.80
2018-10-03T11:11:05.017Z,81.20
2018-10-03T11:13:34.638Z,81.90
2018-10-03T11:16:04.256Z,82.50
2018-10-03T11:18:33.884Z,83.10
2018-10-03T11:21:03.480Z,82.90
2018-10-03T11:23:33.141Z,84.90
2018-10-03T11:26:02.708Z,84.30
2018-10-03T11:28:32.295Z,85.70
2018-10-03T11:31:01.912Z,85.40
2018-10-03T11:33:31.528Z,85.30
2018-10-03T11:36:01.145Z,83.60
2018-10-03T11:38:30.726Z,82.70
2018-10-03T11:41:00.347Z,79.20
2018-10-03T11:43:30.023Z,80.20
2018-10-03T11:45:59.611Z,78.60
2018-10-03T11:48:29.222Z,77.20
2018-10-03T11:50:58.817Z,74.80
2018-10-03T11:53:28.420Z,76.00
2018-10-03T11:55:58.022Z,73.30
2018-10-03T11:58:27.640Z,72.80
2018-10-03T12:00:57.260Z,71.30
2018-10-03T12:03:26.989Z,70.30
2018-10-03T12:05:56.565Z,71.80
2018-10-03T12:08:26.183Z,70.50
2018-10-03T12:10:55.782Z,71.50
2018-10-03T12:13:25.390Z,73.60
2018-10-03T12:15:54.988Z,74.70
2018-10-03T12:18:24.635Z,75.60
2018-10-03T12:20:54.239Z,75.60
2018-10-03T12:23:23.840Z,77.40
2018-10-03T12:25:53.444Z,77.80
2018-10-03T12:28:23.208Z,79.40
2018-10-03T12:30:52.787Z,79.70
2018-10-03T12:33:22.407Z,81.70
2018-10-03T12:35:52.003Z,82.30
2018-10-03T12:38:21.596Z,83.50
2018-10-03T12:40:51.211Z,84.50
2018-10-03T12:43:20.846Z,82.90
2018-10-03T12:45:50.443Z,82.10
2018-10-03T12:48:20.115Z,80.80
2018-10-03T12:50:49.775Z,80.90
2018-10-03T12:53:19.376Z,82.10
2018-10-03T12:55:48.959Z,83.00
2018-10-03T12:58:18.574Z,83.10
2018-10-03T13:00:48.192Z,83.10
2018-10-03T13:03:17.818Z,84.10
2018-10-03T13:05:47.403Z,84.50
2018-10-03T13:08:17.063Z,85.20
2018-10-03T13:10:46.718Z,84.90
2018-10-03T13:13:16.337Z,86.00
2018-10-03T13:15:46.184Z,85.90
2018-10-03T13:18:15.816Z,83.30
2018-10-03T13:20:45.408Z,83.60
2018-10-03T13:23:15.027Z,83.20
2018-10-03T13:25:44.646Z,85.90
2018-10-03T13:28:14.284Z,85.00
2018-10-03T13:33:09.165Z,78.20
2018-10-03T13:35:38.785Z,58.50
2018-10-03T13:38:08.417Z,53.60
2018-10-03T13:40:38.020Z,55.60
2018-10-03T13:43:07.647Z,59.70
2018-10-03T13:45:37.244Z,64.40
2018-10-03T13:48:06.871Z,67.60
2018-10-03T13:50:36.467Z,71.40
2018-10-03T13:53:06.072Z,74.80
2018-10-03T13:55:35.660Z,74.10
2018-10-03T13:58:05.288Z,58.00
2018-10-03T14:00:34.928Z,46.30
2018-10-03T14:03:04.558Z,37.00
2018-10-03T14:05:34.146Z,33.70
2018-10-03T14:08:03.731Z,30.90
2018-10-03T14:10:33.487Z,29.20
2018-10-03T14:13:03.109Z,28.50
2018-10-03T14:15:33.001Z,28.90
2018-10-03T14:18:02.652Z,31.10
2018-10-03T14:20:32.275Z,33.00
2018-10-03T14:23:01.869Z,36.50
2018-10-03T14:25:31.481Z,40.90
2018-10-03T14:28:01.084Z,45.70
2018-10-03T14:30:30.667Z,50.40
2018-10-03T14:33:00.305Z,54.50
2018-10-03T14:35:29.949Z,57.70
2018-10-03T14:37:59.564Z,62.00
2018-10-03T14:40:29.184Z,65.70
2018-10-03T14:42:58.807Z,68.20
2018-10-03T14:45:28.396Z,70.20
2018-10-03T14:47:57.986Z,71.20
2018-10-03T14:50:27.608Z,72.60
2018-10-03T14:52:57.203Z,60.90
2018-10-03T14:55:26.793Z,57.10
2018-10-03T14:57:56.551Z,57.20
2018-10-03T15:00:26.195Z,58.20
2018-10-03T15:02:55.799Z,59.30
2018-10-03T15:05:25.507Z,60.10
2018-10-03T15:07:55.147Z,57.00
2018-10-03T15:10:24.816Z,56.90
2018-10-03T15:12:54.474Z,58.80
2018-10-03T15:15:24.083Z,61.20
2018-10-03T15:17:53.708Z,65.00
2018-10-03T15:20:23.360Z,67.50
2018-10-03T15:22:52.988Z,69.80
2018-10-03T15:25:22.689Z,68.50
2018-10-03T15:27:52.403Z,64.90
2018-10-03T15:30:21.991Z,63.80
2018-10-03T15:32:51.608Z,65.50
2018-10-03T15:35:21.238Z,67.70
2018-10-03T15:37:50.920Z,70.30
2018-10-03T15:40:20.527Z,71.90
2018-10-03T15:42:50.156Z,74.40
2018-10-03T15:45:19.823Z,75.80
2018-10-03T15:47:49.411Z,76.50
2018-10-03T15:50:19.012Z,77.40
2018-10-03T15:52:48.625Z,78.60
2018-10-03T15:55:18.251Z,79.80
2018-10-03T15:57:47.865Z,80.60
2018-10-03T16:00:17.520Z,81.50
2018-10-03T16:02:47.148Z,82.80
2018-10-03T16:05:16.780Z,83.20
2018-10-03T16:07:46.386Z,83.40
2018-10-03T16:10:15.998Z,83.90
2018-10-03T16:12:45.615Z,83.80
2018-10-03T16:15:15.210Z,84.10
2018-10-03T16:17:44.787Z,83.50
2018-10-03T16:20:14.434Z,84.30
2018-10-03T16:22:44.028Z,84.30
2018-10-03T16:25:14.327Z,84.50
2018-10-03T16:27:43.955Z,85.30
2018-10-03T16:30:13.574Z,85.00
2018-10-03T16:32:43.234Z,85.00
2018-10-03T16:35:13.604Z,85.20
2018-10-03T16:37:43.208Z,85.90
2018-10-03T16:40:12.818Z,86.00
2018-10-03T16:42:42.415Z,86.00
2018-10-03T16:45:11.985Z,86.30
2018-10-03T16:47:41.599Z,86.80
2018-10-03T16:50:11.201Z,87.10
2018-10-03T16:52:40.794Z,87.20
2018-10-03T16:55:10.416Z,87.30
2018-10-03T16:57:40.030Z,86.80
2018-10-03T17:00:09.691Z,86.60
2018-10-03T17:02:39.315Z,87.20
2018-10-03T17:05:08.932Z,87.00
2018-10-03T17:07:38.524Z,86.60
2018-10-03T17:10:08.205Z,87.10
2018-10-03T17:12:37.800Z,87.50
2018-10-03T17:15:07.478Z,87.80
2018-10-03T17:17:37.161Z,88.70
2018-10-03T17:20:06.795Z,88.60
2018-10-03T17:22:36.412Z,88.60
2018-10-03T17:25:06.089Z,89.00
2018-10-03T17:27:35.744Z,88.80
2018-10-03T17:30:05.425Z,89.00
2018-10-03T17:32:35.043Z,89.00
2018-10-03T17:35:04.682Z,89.60
2018-10-03T17:37:34.363Z,89.20
2018-10-03T17:40:04.004Z,89.60
2018-10-03T17:42:33.611Z,89.60
2018-10-03T17:45:03.258Z,89.90
2018-10-03T17:47:33.202Z,90.00
2018-10-03T17:50:02.806Z,90.10
2018-10-03T17:52:33.223Z,90.10
2018-10-03T17:55:02.840Z,90.30
2018-10-03T17:57:32.476Z,90.40
2018-10-03T18:00:02.085Z,90.60
2018-10-03T18:02:31.736Z,90.40
2018-10-03T18:05:01.373Z,90.50
2018-10-03T18:07:30.981Z,90.40
2018-10-03T18:10:00.575Z,90.40
2018-10-03T18:12:30.241Z,90.40
2018-10-03T18:14:59.853Z,90.20
2018-10-03T18:17:29.448Z,90.20
2018-10-03T18:19:59.103Z,90.20
2018-10-03T18:22:29.182Z,90.30
2018-10-03T18:25:00.402Z,90.20
2018-10-03T18:27:30.731Z,90.20
2018-10-03T18:30:01.019Z,90.30
2018-10-03T18:32:31.108Z,90.30
2018-10-03T18:35:01.086Z,90.30
2018-10-03T18:37:31.088Z,90.20
2018-10-03T18:40:01.349Z,90.20
2018-10-03T18:42:32.215Z,90.30
2018-10-03T18:45:04.361Z,90.10
2018-10-03T18:47:34.470Z,90.20
2018-10-03T18:50:04.575Z,90.20
2018-10-03T18:52:34.389Z,90.20
2018-10-03T18:55:04.032Z,90.30
2018-10-03T18:57:33.898Z,90.30
2018-10-03T19:00:03.532Z,90.30
2018-10-03T19:02:33.264Z,90.30
2018-10-03T19:05:02.877Z,90.30
2018-10-03T19:07:32.484Z,90.30
2018-10-03T19:10:02.086Z,90.40
2018-10-03T19:12:31.740Z,90.60
2018-10-03T19:15:01.316Z,90.70
2018-10-03T19:17:30.926Z,90.80
2018-10-03T19:20:00.590Z,90.90
2018-10-03T19:22:30.226Z,91.10
2018-10-03T19:24:59.840Z,91.20
2018-10-03T19:27:29.456Z,91.20
2018-10-03T19:29:59.215Z,91.20
2018-10-03T19:32:28.836Z,91.30
2018-10-03T19:34:58.443Z,91.30
2018-10-03T19:37:28.100Z,91.50
2018-10-03T19:39:57.857Z,91.50
2018-10-03T19:42:27.464Z,91.60
2018-10-03T19:44:57.167Z,91.80
2018-10-03T19:47:26.801Z,91.80
2018-10-03T19:49:56.416Z,91.80
2018-10-03T19:52:26.073Z,91.80
2018-10-03T19:54:55.697Z,91.90
2018-10-03T19:57:25.313Z,92.00
2018-10-03T19:59:54.893Z,92.10
2018-10-03T20:02:24.516Z,92.10
2018-10-03T20:04:54.119Z,92.20
2018-10-03T20:07:23.722Z,92.30
2018-10-03T20:09:53.320Z,92.40
2018-10-03T20:12:22.938Z,92.60
2018-10-03T20:14:52.552Z,92.70
2018-10-03T20:17:22.165Z,92.70
2018-10-03T20:19:51.964Z,92.70
2018-10-03T20:22:21.568Z,92.80
2018-10-03T20:24:51.175Z,92.90
2018-10-03T20:27:20.831Z,92.90
2018-10-03T20:29:50.452Z,93.10
2018-10-03T20:32:20.077Z,93.10
2018-10-03T20:34:49.681Z,93.20
2018-10-03T20:37:19.287Z,93.30
2018-10-03T20:39:48.891Z,93.40
2018-10-03T20:42:18.496Z,93.50
2018-10-03T20:44:48.083Z,93.50
2018-10-03T20:47:17.679Z,93.50
2018-10-03T20:49:47.307Z,93.40
2018-10-03T20:52:16.960Z,93.50
2018-10-03T20:54:46.552Z,93.60
2018-10-03T20:57:16.151Z,93.60
2018-10-03T20:59:45.745Z,93.50
2018-10-03T21:02:15.381Z,93.50
2018-10-03T21:04:44.972Z,93.40
2018-10-03T21:07:14.569Z,93.60
2018-10-03T21:09:44.162Z,93.60
2018-10-03T21:12:13.760Z,93.60
2018-10-03T21:14:43.356Z,93.60
2018-10-03T21:17:12.940Z,93.70
2018-10-03T21:19:42.545Z,93.60
2018-10-03T21:22:12.139Z,93.60
2018-10-03T21:24:41.722Z,93.60
2018-10-03T21:27:11.348Z,93.70
2018-10-03T21:29:40.940Z,93.60
2018-10-03T21:32:10.556Z,93.50
2018-10-03T21:34:40.152Z,93.50
2018-10-03T21:37:09.758Z,93.90
2018-10-03T21:39:39.334Z,93.50
2018-10-03T21:42:08.931Z,93.40
2018-10-03T21:44:38.539Z,93.40
2018-10-03T21:47:08.144Z,93.50
2018-10-03T21:49:37.764Z,93.50
2018-10-03T21:52:07.492Z,93.60
2018-10-03T21:54:37.088Z,93.60
2018-10-03T21:57:06.711Z,93.50
2018-10-03T21:59:36.390Z,93.40
2018-10-03T22:02:05.971Z,93.30
2018-10-03T22:04:35.603Z,93.40
2018-10-03T22:07:05.218Z,93.40
2018-10-03T22:09:34.824Z,93.40
2018-10-03T22:12:04.422Z,93.40
2018-10-03T22:14:34.021Z,93.60
2018-10-03T22:17:03.674Z,93.60
2018-10-03T22:19:33.249Z,93.50
2018-10-03T22:22:02.841Z,93.60
2018-10-03T22:24:32.421Z,93.70
2018-10-03T22:27:02.023Z,93.70
2018-10-03T22:29:31.627Z,93.80
2018-10-03T22:32:01.263Z,93.80
2018-10-03T22:34:30.845Z,93.80
2018-10-03T22:37:00.433Z,93.90
2018-10-03T22:39:30.023Z,93.90
2018-10-03T22:41:59.601Z,94.00
2018-10-03T22:44:29.198Z,94.10
2018-10-03T22:46:58.826Z,94.00
2018-10-03T22:49:28.438Z,94.00
2018-10-03T22:51:58.080Z,94.40
2018-10-03T22:54:27.703Z,94.10
2018-10-03T22:56:57.363Z,94.20
2018-10-03T22:59:27.055Z,94.20
2018-10-03T23:01:56.811Z,94.20
2018-10-03T23:04:26.480Z,94.20
2018-10-03T23:06:56.098Z,94.30
2018-10-03T23:09:25.718Z,94.20
2018-10-03T23:11:55.357Z,94.70
2018-10-03T23:14:24.919Z,94.50
2018-10-03T23:16:54.567Z,94.50
2018-10-03T23:19:24.166Z,94.40
2018-10-03T23:21:53.754Z,94.60
2018-10-03T23:24:23.342Z,94.80
2018-10-03T23:26:52.903Z,94.90
2018-10-03T23:29:22.498Z,95.00
2018-10-03T23:31:52.090Z,94.90
2018-10-03T23:34:21.681Z,94.90
2018-10-03T23:36:51.310Z,95.00
2018-10-03T23:39:20.966Z,95.00
2018-10-03T23:41:50.606Z,95.00
2018-10-03T23:44:20.196Z,94.90
2018-10-03T23:46:49.777Z,94.80
2018-10-03T23:49:19.394Z,94.80
2018-10-03T23:51:48.992Z,94.90
2018-10-03T23:54:18.570Z,95.00
2018-10-03T23:56:48.193Z,95.00
2018-10-03T23:59:17.765Z,95.00
